sensor_id;sensor_type;location;lat;lon;timestamp;P1;durP1;ratioP1;P2;durP2;ratioP2
68097;SDS011;54886;47.036;15.466;2023-05-07T00:01:03;9.10;;;6.65;;
68097;SDS011;54886;47.036;15.466;2023-05-07T00:03:30;10.93;;;6.55;;
68097;SDS011;54886;47.036;15.466;2023-05-07T00:05:56;9.13;;;6.05;;
68097;SDS011;54886;47.036;15.466;2023-05-07T00:08:21;9.38;;;6.28;;
68097;SDS011;54886;47.036;15.466;2023-05-07T00:10:47;8.77;;;6.30;;
68097;SDS011;54886;47.036;15.466;2023-05-07T00:13:12;7.93;;;5.65;;
68097;SDS011;54886;47.036;15.466;2023-05-07T00:15:38;8.00;;;5.47;;
68097;SDS011;54886;47.036;15.466;2023-05-07T00:18:03;8.82;;;5.55;;
68097;SDS011;54886;47.036;15.466;2023-05-07T00:20:29;10.18;;;5.45;;
68097;SDS011;54886;47.036;15.466;2023-05-07T00:22:54;8.15;;;5.50;;
68097;SDS011;54886;47.036;15.466;2023-05-07T00:25:20;7.25;;;5.10;;
68097;SDS011;54886;47.036;15.466;2023-05-07T00:27:45;9.85;;;5.65;;
68097;SDS011;54886;47.036;15.466;2023-05-07T00:30:11;9.88;;;5.60;;
68097;SDS011;54886;47.036;15.466;2023-05-07T00:32:37;7.95;;;5.20;;
68097;SDS011;54886;47.036;15.466;2023-05-07T00:35:03;8.23;;;5.20;;
68097;SDS011;54886;47.036;15.466;2023-05-07T00:37:29;8.25;;;5.72;;
68097;SDS011;54886;47.036;15.466;2023-05-07T00:39:55;8.18;;;5.90;;
68097;SDS011;54886;47.036;15.466;2023-05-07T00:42:20;9.02;;;5.93;;
68097;SDS011;54886;47.036;15.466;2023-05-07T00:44:46;8.88;;;5.80;;
68097;SDS011;54886;47.036;15.466;2023-05-07T00:47:11;8.60;;;6.15;;
68097;SDS011;54886;47.036;15.466;2023-05-07T00:49:38;10.63;;;6.50;;
68097;SDS011;54886;47.036;15.466;2023-05-07T00:52:06;10.57;;;6.05;;
68097;SDS011;54886;47.036;15.466;2023-05-07T00:54:34;8.98;;;6.03;;
68097;SDS011;54886;47.036;15.466;2023-05-07T00:57:00;9.25;;;5.88;;
68097;SDS011;54886;47.036;15.466;2023-05-07T00:59:27;9.90;;;5.88;;
68097;SDS011;54886;47.036;15.466;2023-05-07T01:01:53;9.07;;;6.10;;
68097;SDS011;54886;47.036;15.466;2023-05-07T01:04:19;8.38;;;5.55;;
68097;SDS011;54886;47.036;15.466;2023-05-07T01:06:44;8.88;;;5.60;;
68097;SDS011;54886;47.036;15.466;2023-05-07T01:09:11;7.35;;;5.40;;
68097;SDS011;54886;47.036;15.466;2023-05-07T01:11:38;7.27;;;5.30;;
68097;SDS011;54886;47.036;15.466;2023-05-07T01:14:04;8.30;;;5.27;;
68097;SDS011;54886;47.036;15.466;2023-05-07T01:16:30;7.55;;;5.43;;
68097;SDS011;54886;47.036;15.466;2023-05-07T01:18:56;7.70;;;5.47;;
68097;SDS011;54886;47.036;15.466;2023-05-07T01:21:24;7.95;;;5.40;;
68097;SDS011;54886;47.036;15.466;2023-05-07T01:23:51;7.85;;;5.25;;
68097;SDS011;54886;47.036;15.466;2023-05-07T01:26:17;7.32;;;4.93;;
68097;SDS011;54886;47.036;15.466;2023-05-07T01:28:44;7.20;;;5.00;;
68097;SDS011;54886;47.036;15.466;2023-05-07T01:31:10;8.52;;;5.00;;
68097;SDS011;54886;47.036;15.466;2023-05-07T01:33:38;7.28;;;4.85;;
68097;SDS011;54886;47.036;15.466;2023-05-07T01:36:06;7.97;;;5.13;;
68097;SDS011;54886;47.036;15.466;2023-05-07T01:38:34;7.35;;;5.22;;
68097;SDS011;54886;47.036;15.466;2023-05-07T01:41:01;6.90;;;4.97;;
68097;SDS011;54886;47.036;15.466;2023-05-07T01:43:28;7.18;;;4.57;;
68097;SDS011;54886;47.036;15.466;2023-05-07T01:45:54;6.97;;;4.03;;
68097;SDS011;54886;47.036;15.466;2023-05-07T01:48:20;6.82;;;3.90;;
68097;SDS011;54886;47.036;15.466;2023-05-07T01:50:46;6.00;;;4.18;;
68097;SDS011;54886;47.036;15.466;2023-05-07T01:53:12;5.43;;;3.92;;
68097;SDS011;54886;47.036;15.466;2023-05-07T01:55:38;6.75;;;4.00;;
68097;SDS011;54886;47.036;15.466;2023-05-07T01:58:05;8.35;;;4.00;;
68097;SDS011;54886;47.036;15.466;2023-05-07T02:00:30;6.30;;;3.92;;
68097;SDS011;54886;47.036;15.466;2023-05-07T02:02:56;5.03;;;3.50;;
68097;SDS011;54886;47.036;15.466;2023-05-07T02:05:22;6.57;;;3.92;;
68097;SDS011;54886;47.036;15.466;2023-05-07T02:07:47;5.57;;;3.63;;
68097;SDS011;54886;47.036;15.466;2023-05-07T02:10:13;5.90;;;3.67;;
68097;SDS011;54886;47.036;15.466;2023-05-07T02:12:38;4.75;;;3.17;;
68097;SDS011;54886;47.036;15.466;2023-05-07T02:15:04;4.85;;;3.50;;
68097;SDS011;54886;47.036;15.466;2023-05-07T02:17:30;7.10;;;3.67;;
68097;SDS011;54886;47.036;15.466;2023-05-07T02:19:57;7.57;;;4.05;;
68097;SDS011;54886;47.036;15.466;2023-05-07T02:22:23;5.82;;;3.70;;
68097;SDS011;54886;47.036;15.466;2023-05-07T02:24:49;6.95;;;3.88;;
68097;SDS011;54886;47.036;15.466;2023-05-07T02:27:14;6.15;;;4.05;;
68097;SDS011;54886;47.036;15.466;2023-05-07T02:29:40;6.75;;;3.85;;
68097;SDS011;54886;47.036;15.466;2023-05-07T02:32:05;5.53;;;3.53;;
68097;SDS011;54886;47.036;15.466;2023-05-07T02:34:31;6.38;;;4.20;;
68097;SDS011;54886;47.036;15.466;2023-05-07T02:36:56;6.82;;;3.50;;
68097;SDS011;54886;47.036;15.466;2023-05-07T02:39:22;5.78;;;3.80;;
68097;SDS011;54886;47.036;15.466;2023-05-07T02:41:47;6.05;;;3.88;;
68097;SDS011;54886;47.036;15.466;2023-05-07T02:44:13;6.53;;;4.07;;
68097;SDS011;54886;47.036;15.466;2023-05-07T02:46:38;6.78;;;4.18;;
68097;SDS011;54886;47.036;15.466;2023-05-07T02:49:03;6.85;;;4.18;;
68097;SDS011;54886;47.036;15.466;2023-05-07T02:51:29;5.30;;;3.53;;
68097;SDS011;54886;47.036;15.466;2023-05-07T02:53:55;6.45;;;4.07;;
68097;SDS011;54886;47.036;15.466;2023-05-07T02:56:20;5.05;;;3.40;;
68097;SDS011;54886;47.036;15.466;2023-05-07T02:58:46;6.00;;;3.55;;
68097;SDS011;54886;47.036;15.466;2023-05-07T03:01:11;4.82;;;3.53;;
68097;SDS011;54886;47.036;15.466;2023-05-07T03:03:38;6.53;;;3.30;;
68097;SDS011;54886;47.036;15.466;2023-05-07T03:06:04;4.65;;;3.40;;
68097;SDS011;54886;47.036;15.466;2023-05-07T03:08:30;5.90;;;3.40;;
68097;SDS011;54886;47.036;15.466;2023-05-07T03:10:55;5.65;;;3.70;;
68097;SDS011;54886;47.036;15.466;2023-05-07T03:13:21;5.95;;;3.83;;
68097;SDS011;54886;47.036;15.466;2023-05-07T03:15:46;7.40;;;3.97;;
68097;SDS011;54886;47.036;15.466;2023-05-07T03:18:12;6.65;;;4.07;;
68097;SDS011;54886;47.036;15.466;2023-05-07T03:20:37;8.30;;;4.47;;
68097;SDS011;54886;47.036;15.466;2023-05-07T03:23:03;6.72;;;4.13;;
68097;SDS011;54886;47.036;15.466;2023-05-07T03:25:28;6.20;;;4.38;;
68097;SDS011;54886;47.036;15.466;2023-05-07T03:27:55;6.35;;;4.07;;
68097;SDS011;54886;47.036;15.466;2023-05-07T03:30:21;9.25;;;5.25;;
68097;SDS011;54886;47.036;15.466;2023-05-07T03:32:46;8.65;;;5.90;;
68097;SDS011;54886;47.036;15.466;2023-05-07T03:35:11;11.90;;;7.05;;
68097;SDS011;54886;47.036;15.466;2023-05-07T03:37:37;9.82;;;6.10;;
68097;SDS011;54886;47.036;15.466;2023-05-07T03:40:03;8.98;;;6.00;;
68097;SDS011;54886;47.036;15.466;2023-05-07T03:42:29;8.90;;;5.72;;
68097;SDS011;54886;47.036;15.466;2023-05-07T03:44:55;9.20;;;6.90;;
68097;SDS011;54886;47.036;15.466;2023-05-07T03:47:20;14.02;;;6.63;;
68097;SDS011;54886;47.036;15.466;2023-05-07T03:49:46;11.23;;;6.97;;
68097;SDS011;54886;47.036;15.466;2023-05-07T03:52:11;9.73;;;6.65;;
68097;SDS011;54886;47.036;15.466;2023-05-07T03:54:36;9.32;;;6.82;;
68097;SDS011;54886;47.036;15.466;2023-05-07T03:57:02;8.75;;;6.72;;
68097;SDS011;54886;47.036;15.466;2023-05-07T03:59:27;8.38;;;6.40;;
68097;SDS011;54886;47.036;15.466;2023-05-07T04:01:53;8.35;;;6.25;;
68097;SDS011;54886;47.036;15.466;2023-05-07T04:04:18;8.32;;;6.32;;
68097;SDS011;54886;47.036;15.466;2023-05-07T04:06:44;10.05;;;5.97;;
68097;SDS011;54886;47.036;15.466;2023-05-07T04:09:09;10.05;;;5.40;;
68097;SDS011;54886;47.036;15.466;2023-05-07T04:11:35;8.93;;;5.10;;
68097;SDS011;54886;47.036;15.466;2023-05-07T04:14:01;7.20;;;4.75;;
68097;SDS011;54886;47.036;15.466;2023-05-07T04:16:26;6.82;;;4.88;;
68097;SDS011;54886;47.036;15.466;2023-05-07T04:18:52;7.85;;;4.20;;
68097;SDS011;54886;47.036;15.466;2023-05-07T04:21:18;6.30;;;4.35;;
68097;SDS011;54886;47.036;15.466;2023-05-07T04:23:45;5.97;;;3.90;;
68097;SDS011;54886;47.036;15.466;2023-05-07T04:26:11;7.85;;;3.90;;
68097;SDS011;54886;47.036;15.466;2023-05-07T04:28:36;8.23;;;3.88;;
68097;SDS011;54886;47.036;15.466;2023-05-07T04:31:01;5.95;;;3.70;;
68097;SDS011;54886;47.036;15.466;2023-05-07T04:33:27;6.95;;;4.18;;
68097;SDS011;54886;47.036;15.466;2023-05-07T04:35:52;5.88;;;3.78;;
68097;SDS011;54886;47.036;15.466;2023-05-07T04:38:18;5.75;;;3.67;;
68097;SDS011;54886;47.036;15.466;2023-05-07T04:40:44;5.53;;;3.50;;
68097;SDS011;54886;47.036;15.466;2023-05-07T04:43:09;6.35;;;3.60;;
68097;SDS011;54886;47.036;15.466;2023-05-07T04:45:35;6.93;;;3.85;;
68097;SDS011;54886;47.036;15.466;2023-05-07T04:48:01;6.72;;;3.40;;
68097;SDS011;54886;47.036;15.466;2023-05-07T04:50:26;6.20;;;3.85;;
68097;SDS011;54886;47.036;15.466;2023-05-07T04:52:52;7.78;;;3.47;;
68097;SDS011;54886;47.036;15.466;2023-05-07T04:55:17;6.05;;;3.67;;
68097;SDS011;54886;47.036;15.466;2023-05-07T04:57:43;7.05;;;3.72;;
68097;SDS011;54886;47.036;15.466;2023-05-07T05:00:08;5.60;;;3.75;;
68097;SDS011;54886;47.036;15.466;2023-05-07T05:02:34;9.52;;;3.80;;
68097;SDS011;54886;47.036;15.466;2023-05-07T05:05:00;5.22;;;3.75;;
68097;SDS011;54886;47.036;15.466;2023-05-07T05:07:29;6.53;;;3.70;;
68097;SDS011;54886;47.036;15.466;2023-05-07T05:09:54;6.35;;;3.80;;
68097;SDS011;54886;47.036;15.466;2023-05-07T05:12:20;5.50;;;3.67;;
68097;SDS011;54886;47.036;15.466;2023-05-07T05:14:46;6.80;;;3.60;;
68097;SDS011;54886;47.036;15.466;2023-05-07T05:17:12;7.60;;;3.70;;
68097;SDS011;54886;47.036;15.466;2023-05-07T05:19:37;7.03;;;3.53;;
68097;SDS011;54886;47.036;15.466;2023-05-07T05:22:02;5.55;;;3.80;;
68097;SDS011;54886;47.036;15.466;2023-05-07T05:24:29;5.95;;;3.35;;
68097;SDS011;54886;47.036;15.466;2023-05-07T05:26:55;6.95;;;3.47;;
68097;SDS011;54886;47.036;15.466;2023-05-07T05:29:20;6.88;;;3.53;;
68097;SDS011;54886;47.036;15.466;2023-05-07T05:31:46;5.13;;;3.53;;
68097;SDS011;54886;47.036;15.466;2023-05-07T05:34:11;5.45;;;3.40;;
68097;SDS011;54886;47.036;15.466;2023-05-07T05:36:36;5.68;;;3.42;;
68097;SDS011;54886;47.036;15.466;2023-05-07T05:39:02;7.07;;;3.47;;
68097;SDS011;54886;47.036;15.466;2023-05-07T05:41:27;6.50;;;3.40;;
68097;SDS011;54886;47.036;15.466;2023-05-07T05:43:52;6.13;;;3.60;;
68097;SDS011;54886;47.036;15.466;2023-05-07T05:46:18;5.50;;;3.30;;
68097;SDS011;54886;47.036;15.466;2023-05-07T05:48:44;5.10;;;3.50;;
68097;SDS011;54886;47.036;15.466;2023-05-07T05:51:09;7.05;;;3.53;;
68097;SDS011;54886;47.036;15.466;2023-05-07T05:53:34;5.38;;;3.30;;
68097;SDS011;54886;47.036;15.466;2023-05-07T05:56:00;5.03;;;3.20;;
68097;SDS011;54886;47.036;15.466;2023-05-07T05:58:25;5.05;;;3.03;;
68097;SDS011;54886;47.036;15.466;2023-05-07T06:00:51;8.40;;;3.05;;
68097;SDS011;54886;47.036;15.466;2023-05-07T06:03:17;4.10;;;2.90;;
68097;SDS011;54886;47.036;15.466;2023-05-07T06:05:42;4.75;;;3.20;;
68097;SDS011;54886;47.036;15.466;2023-05-07T06:08:08;4.63;;;2.88;;
68097;SDS011;54886;47.036;15.466;2023-05-07T06:10:33;4.07;;;2.70;;
68097;SDS011;54886;47.036;15.466;2023-05-07T06:15:26;4.80;;;2.78;;
68097;SDS011;54886;47.036;15.466;2023-05-07T06:17:52;5.88;;;3.05;;
68097;SDS011;54886;47.036;15.466;2023-05-07T06:20:17;5.28;;;3.13;;
68097;SDS011;54886;47.036;15.466;2023-05-07T06:22:43;7.10;;;3.35;;
68097;SDS011;54886;47.036;15.466;2023-05-07T06:25:08;5.13;;;2.97;;
68097;SDS011;54886;47.036;15.466;2023-05-07T06:27:34;5.00;;;3.38;;
68097;SDS011;54886;47.036;15.466;2023-05-07T06:29:59;5.45;;;3.30;;
68097;SDS011;54886;47.036;15.466;2023-05-07T06:32:25;7.60;;;3.42;;
68097;SDS011;54886;47.036;15.466;2023-05-07T06:34:51;4.38;;;3.10;;
68097;SDS011;54886;47.036;15.466;2023-05-07T06:37:16;6.13;;;3.40;;
68097;SDS011;54886;47.036;15.466;2023-05-07T06:39:41;5.35;;;3.13;;
68097;SDS011;54886;47.036;15.466;2023-05-07T06:42:07;5.22;;;3.00;;
68097;SDS011;54886;47.036;15.466;2023-05-07T06:44:32;4.38;;;2.97;;
68097;SDS011;54886;47.036;15.466;2023-05-07T06:46:57;6.57;;;3.40;;
68097;SDS011;54886;47.036;15.466;2023-05-07T06:49:23;5.35;;;3.30;;
68097;SDS011;54886;47.036;15.466;2023-05-07T06:51:48;4.93;;;3.00;;
68097;SDS011;54886;47.036;15.466;2023-05-07T06:54:14;5.38;;;3.10;;
68097;SDS011;54886;47.036;15.466;2023-05-07T06:56:39;4.50;;;3.13;;
68097;SDS011;54886;47.036;15.466;2023-05-07T06:59:05;6.05;;;3.00;;
68097;SDS011;54886;47.036;15.466;2023-05-07T07:01:31;4.28;;;2.80;;
68097;SDS011;54886;47.036;15.466;2023-05-07T07:03:56;3.55;;;2.75;;
68097;SDS011;54886;47.036;15.466;2023-05-07T07:06:22;4.40;;;2.97;;
68097;SDS011;54886;47.036;15.466;2023-05-07T07:08:47;4.85;;;3.17;;
68097;SDS011;54886;47.036;15.466;2023-05-07T07:11:13;7.40;;;3.05;;
68097;SDS011;54886;47.036;15.466;2023-05-07T07:13:38;5.20;;;3.00;;
68097;SDS011;54886;47.036;15.466;2023-05-07T07:16:05;5.82;;;3.20;;
68097;SDS011;54886;47.036;15.466;2023-05-07T07:18:30;4.20;;;3.03;;
68097;SDS011;54886;47.036;15.466;2023-05-07T07:20:55;5.85;;;3.40;;
68097;SDS011;54886;47.036;15.466;2023-05-07T07:23:21;6.15;;;3.22;;
68097;SDS011;54886;47.036;15.466;2023-05-07T07:25:46;4.88;;;3.08;;
68097;SDS011;54886;47.036;15.466;2023-05-07T07:28:12;6.22;;;3.38;;
68097;SDS011;54886;47.036;15.466;2023-05-07T07:30:38;4.53;;;3.50;;
68097;SDS011;54886;47.036;15.466;2023-05-07T07:33:04;4.45;;;3.20;;
68097;SDS011;54886;47.036;15.466;2023-05-07T07:35:30;5.57;;;3.58;;
68097;SDS011;54886;47.036;15.466;2023-05-07T07:37:56;4.97;;;3.60;;
68097;SDS011;54886;47.036;15.466;2023-05-07T07:40:21;5.30;;;3.38;;
68097;SDS011;54886;47.036;15.466;2023-05-07T07:42:47;5.95;;;3.30;;
68097;SDS011;54886;47.036;15.466;2023-05-07T07:45:12;5.40;;;3.53;;
68097;SDS011;54886;47.036;15.466;2023-05-07T07:47:39;5.43;;;3.50;;
68097;SDS011;54886;47.036;15.466;2023-05-07T07:50:05;5.60;;;3.50;;
68097;SDS011;54886;47.036;15.466;2023-05-07T07:52:32;9.15;;;3.70;;
68097;SDS011;54886;47.036;15.466;2023-05-07T07:54:57;5.45;;;3.38;;
68097;SDS011;54886;47.036;15.466;2023-05-07T07:57:23;7.82;;;3.63;;
68097;SDS011;54886;47.036;15.466;2023-05-07T07:59:49;5.78;;;3.55;;
68097;SDS011;54886;47.036;15.466;2023-05-07T08:02:15;4.78;;;3.33;;
68097;SDS011;54886;47.036;15.466;2023-05-07T08:04:40;5.88;;;3.45;;
68097;SDS011;54886;47.036;15.466;2023-05-07T08:07:08;6.18;;;3.63;;
68097;SDS011;54886;47.036;15.466;2023-05-07T08:09:34;5.32;;;3.50;;
68097;SDS011;54886;47.036;15.466;2023-05-07T08:11:59;8.63;;;3.78;;
68097;SDS011;54886;47.036;15.466;2023-05-07T08:14:26;5.18;;;3.63;;
68097;SDS011;54886;47.036;15.466;2023-05-07T08:16:53;5.63;;;3.70;;
68097;SDS011;54886;47.036;15.466;2023-05-07T08:19:19;6.28;;;3.75;;
68097;SDS011;54886;47.036;15.466;2023-05-07T08:21:45;5.60;;;3.75;;
68097;SDS011;54886;47.036;15.466;2023-05-07T08:24:12;6.13;;;3.67;;
68097;SDS011;54886;47.036;15.466;2023-05-07T08:26:38;5.65;;;3.35;;
68097;SDS011;54886;47.036;15.466;2023-05-07T08:29:04;8.20;;;3.70;;
68097;SDS011;54886;47.036;15.466;2023-05-07T08:31:29;5.97;;;3.78;;
68097;SDS011;54886;47.036;15.466;2023-05-07T08:33:55;5.45;;;3.55;;
68097;SDS011;54886;47.036;15.466;2023-05-07T08:36:21;6.47;;;3.70;;
68097;SDS011;54886;47.036;15.466;2023-05-07T08:38:47;4.55;;;3.38;;
68097;SDS011;54886;47.036;15.466;2023-05-07T08:41:12;5.05;;;3.58;;
68097;SDS011;54886;47.036;15.466;2023-05-07T08:43:38;5.85;;;3.55;;
68097;SDS011;54886;47.036;15.466;2023-05-07T08:46:06;6.28;;;3.72;;
68097;SDS011;54886;47.036;15.466;2023-05-07T08:48:34;5.75;;;3.38;;
68097;SDS011;54886;47.036;15.466;2023-05-07T08:51:00;6.47;;;3.83;;
68097;SDS011;54886;47.036;15.466;2023-05-07T08:53:26;5.85;;;3.60;;
68097;SDS011;54886;47.036;15.466;2023-05-07T08:55:51;6.25;;;3.72;;
68097;SDS011;54886;47.036;15.466;2023-05-07T08:58:18;5.50;;;3.60;;
68097;SDS011;54886;47.036;15.466;2023-05-07T09:00:43;6.35;;;3.78;;
68097;SDS011;54886;47.036;15.466;2023-05-07T09:03:09;5.47;;;3.50;;
68097;SDS011;54886;47.036;15.466;2023-05-07T09:05:37;7.13;;;3.80;;
68097;SDS011;54886;47.036;15.466;2023-05-07T09:08:04;7.18;;;3.85;;
68097;SDS011;54886;47.036;15.466;2023-05-07T09:10:34;5.85;;;3.58;;
68097;SDS011;54886;47.036;15.466;2023-05-07T09:12:59;5.68;;;3.30;;
68097;SDS011;54886;47.036;15.466;2023-05-07T09:15:25;5.38;;;3.72;;
68097;SDS011;54886;47.036;15.466;2023-05-07T09:17:51;5.37;;;3.20;;
68097;SDS011;54886;47.036;15.466;2023-05-07T09:20:17;4.65;;;3.20;;
68097;SDS011;54886;47.036;15.466;2023-05-07T09:22:43;4.72;;;2.95;;
68097;SDS011;54886;47.036;15.466;2023-05-07T09:25:09;5.10;;;3.25;;
68097;SDS011;54886;47.036;15.466;2023-05-07T09:27:34;4.53;;;3.25;;
68097;SDS011;54886;47.036;15.466;2023-05-07T09:30:06;7.88;;;3.20;;
68097;SDS011;54886;47.036;15.466;2023-05-07T09:32:35;4.47;;;3.00;;
68097;SDS011;54886;47.036;15.466;2023-05-07T09:35:04;4.45;;;3.15;;
68097;SDS011;54886;47.036;15.466;2023-05-07T09:37:30;4.97;;;3.30;;
68097;SDS011;54886;47.036;15.466;2023-05-07T09:39:56;6.43;;;3.38;;
68097;SDS011;54886;47.036;15.466;2023-05-07T09:42:24;5.80;;;3.03;;
68097;SDS011;54886;47.036;15.466;2023-05-07T09:44:52;5.32;;;3.00;;
68097;SDS011;54886;47.036;15.466;2023-05-07T09:47:18;4.93;;;3.25;;
68097;SDS011;54886;47.036;15.466;2023-05-07T09:49:46;4.70;;;3.00;;
68097;SDS011;54886;47.036;15.466;2023-05-07T09:52:13;4.88;;;2.88;;
68097;SDS011;54886;47.036;15.466;2023-05-07T09:54:39;4.90;;;2.90;;
68097;SDS011;54886;47.036;15.466;2023-05-07T09:57:06;6.20;;;3.00;;
68097;SDS011;54886;47.036;15.466;2023-05-07T09:59:32;6.28;;;2.78;;
68097;SDS011;54886;47.036;15.466;2023-05-07T10:02:00;4.03;;;2.97;;
68097;SDS011;54886;47.036;15.466;2023-05-07T10:04:26;3.73;;;2.63;;
68097;SDS011;54886;47.036;15.466;2023-05-07T10:06:52;3.90;;;2.60;;
68097;SDS011;54886;47.036;15.466;2023-05-07T10:09:18;3.63;;;2.70;;
68097;SDS011;54886;47.036;15.466;2023-05-07T10:11:45;4.70;;;2.97;;
68097;SDS011;54886;47.036;15.466;2023-05-07T10:14:11;4.63;;;3.05;;
68097;SDS011;54886;47.036;15.466;2023-05-07T10:16:36;6.95;;;3.15;;
68097;SDS011;54886;47.036;15.466;2023-05-07T10:19:06;4.55;;;3.10;;
68097;SDS011;54886;47.036;15.466;2023-05-07T10:21:39;4.57;;;3.10;;
68097;SDS011;54886;47.036;15.466;2023-05-07T10:24:12;5.50;;;2.80;;
68097;SDS011;54886;47.036;15.466;2023-05-07T10:26:47;6.00;;;2.88;;
68097;SDS011;54886;47.036;15.466;2023-05-07T10:29:17;3.97;;;3.17;;
68097;SDS011;54886;47.036;15.466;2023-05-07T10:31:54;4.88;;;3.10;;
68097;SDS011;54886;47.036;15.466;2023-05-07T10:34:33;8.75;;;3.40;;
68097;SDS011;54886;47.036;15.466;2023-05-07T10:37:02;4.30;;;2.83;;
68097;SDS011;54886;47.036;15.466;2023-05-07T10:39:29;4.00;;;2.75;;
68097;SDS011;54886;47.036;15.466;2023-05-07T10:41:55;4.57;;;2.67;;
68097;SDS011;54886;47.036;15.466;2023-05-07T10:44:29;3.85;;;2.67;;
68097;SDS011;54886;47.036;15.466;2023-05-07T10:47:11;6.65;;;2.90;;
68097;SDS011;54886;47.036;15.466;2023-05-07T10:52:16;5.03;;;2.65;;
68097;SDS011;54886;47.036;15.466;2023-05-07T10:54:43;6.28;;;2.83;;
68097;SDS011;54886;47.036;15.466;2023-05-07T10:59:56;4.05;;;2.40;;
68097;SDS011;54886;47.036;15.466;2023-05-07T11:02:22;3.88;;;2.78;;
68097;SDS011;54886;47.036;15.466;2023-05-07T11:07:58;3.80;;;2.47;;
68097;SDS011;54886;47.036;15.466;2023-05-07T11:13:44;3.83;;;2.75;;
68097;SDS011;54886;47.036;15.466;2023-05-07T11:18:53;3.05;;;2.40;;
68097;SDS011;54886;47.036;15.466;2023-05-07T11:24:06;3.72;;;2.40;;
68097;SDS011;54886;47.036;15.466;2023-05-07T11:26:44;2.80;;;2.50;;
68097;SDS011;54886;47.036;15.466;2023-05-07T11:29:17;3.33;;;2.53;;
68097;SDS011;54886;47.036;15.466;2023-05-07T11:31:47;4.07;;;2.70;;
68097;SDS011;54886;47.036;15.466;2023-05-07T11:34:13;3.83;;;2.78;;
68097;SDS011;54886;47.036;15.466;2023-05-07T11:36:45;3.58;;;2.53;;
68097;SDS011;54886;47.036;15.466;2023-05-07T11:39:25;4.15;;;2.42;;
68097;SDS011;54886;47.036;15.466;2023-05-07T11:41:52;3.10;;;2.47;;
68097;SDS011;54886;47.036;15.466;2023-05-07T11:44:18;3.10;;;2.50;;
68097;SDS011;54886;47.036;15.466;2023-05-07T11:46:44;4.95;;;2.40;;
68097;SDS011;54886;47.036;15.466;2023-05-07T11:49:10;5.00;;;2.50;;
68097;SDS011;54886;47.036;15.466;2023-05-07T11:51:36;2.70;;;2.20;;
68097;SDS011;54886;47.036;15.466;2023-05-07T11:54:03;3.45;;;2.63;;
68097;SDS011;54886;47.036;15.466;2023-05-07T11:56:33;3.90;;;2.22;;
68097;SDS011;54886;47.036;15.466;2023-05-07T11:58:59;6.85;;;2.60;;
68097;SDS011;54886;47.036;15.466;2023-05-07T12:01:25;2.90;;;2.50;;
68097;SDS011;54886;47.036;15.466;2023-05-07T12:03:50;3.70;;;2.35;;
68097;SDS011;54886;47.036;15.466;2023-05-07T12:06:16;4.93;;;2.50;;
68097;SDS011;54886;47.036;15.466;2023-05-07T12:08:42;3.90;;;2.40;;
68097;SDS011;54886;47.036;15.466;2023-05-07T12:11:41;2.75;;;2.35;;
68097;SDS011;54886;47.036;15.466;2023-05-07T12:14:00;3.97;;;2.50;;
68097;SDS011;54886;47.036;15.466;2023-05-07T12:16:26;5.40;;;2.42;;
68097;SDS011;54886;47.036;15.466;2023-05-07T12:18:52;4.10;;;2.25;;
68097;SDS011;54886;47.036;15.466;2023-05-07T12:21:19;3.60;;;2.60;;
68097;SDS011;54886;47.036;15.466;2023-05-07T12:23:45;7.20;;;2.55;;
68097;SDS011;54886;47.036;15.466;2023-05-07T12:26:11;3.38;;;2.28;;
68097;SDS011;54886;47.036;15.466;2023-05-07T12:28:37;5.30;;;2.40;;
68097;SDS011;54886;47.036;15.466;2023-05-07T12:31:06;4.30;;;2.50;;
68097;SDS011;54886;47.036;15.466;2023-05-07T12:33:32;3.80;;;2.45;;
68097;SDS011;54886;47.036;15.466;2023-05-07T12:36:02;2.75;;;2.30;;
68097;SDS011;54886;47.036;15.466;2023-05-07T12:38:32;4.13;;;2.30;;
68097;SDS011;54886;47.036;15.466;2023-05-07T12:41:00;2.78;;;2.47;;
68097;SDS011;54886;47.036;15.466;2023-05-07T12:43:27;3.10;;;2.50;;
68097;SDS011;54886;47.036;15.466;2023-05-07T12:45:55;5.45;;;4.28;;
68097;SDS011;54886;47.036;15.466;2023-05-07T12:48:21;8.80;;;7.15;;
68097;SDS011;54886;47.036;15.466;2023-05-07T12:50:51;4.20;;;2.65;;
68097;SDS011;54886;47.036;15.466;2023-05-07T12:53:19;4.35;;;3.20;;
68097;SDS011;54886;47.036;15.466;2023-05-07T12:55:47;3.55;;;2.60;;
68097;SDS011;54886;47.036;15.466;2023-05-07T12:58:15;4.47;;;3.00;;
68097;SDS011;54886;47.036;15.466;2023-05-07T13:00:51;4.28;;;2.80;;
68097;SDS011;54886;47.036;15.466;2023-05-07T13:05:51;3.80;;;2.50;;
68097;SDS011;54886;47.036;15.466;2023-05-07T13:11:00;4.63;;;2.50;;
68097;SDS011;54886;47.036;15.466;2023-05-07T13:13:28;4.68;;;2.90;;
68097;SDS011;54886;47.036;15.466;2023-05-07T13:15:54;3.20;;;2.60;;
68097;SDS011;54886;47.036;15.466;2023-05-07T13:18:20;3.30;;;2.60;;
68097;SDS011;54886;47.036;15.466;2023-05-07T13:20:45;4.75;;;2.70;;
68097;SDS011;54886;47.036;15.466;2023-05-07T13:23:10;4.90;;;3.10;;
68097;SDS011;54886;47.036;15.466;2023-05-07T13:25:36;4.15;;;2.80;;
68097;SDS011;54886;47.036;15.466;2023-05-07T13:28:01;5.60;;;2.70;;
68097;SDS011;54886;47.036;15.466;2023-05-07T13:30:27;5.05;;;2.78;;
68097;SDS011;54886;47.036;15.466;2023-05-07T13:32:54;6.13;;;2.90;;
68097;SDS011;54886;47.036;15.466;2023-05-07T13:37:46;4.22;;;3.10;;
68097;SDS011;54886;47.036;15.466;2023-05-07T13:40:13;4.32;;;3.00;;
68097;SDS011;54886;47.036;15.466;2023-05-07T13:42:38;6.07;;;3.63;;
68097;SDS011;54886;47.036;15.466;2023-05-07T13:45:04;7.70;;;3.97;;
68097;SDS011;54886;47.036;15.466;2023-05-07T13:47:30;8.05;;;6.03;;
68097;SDS011;54886;47.036;15.466;2023-05-07T13:49:55;7.97;;;4.10;;
68097;SDS011;54886;47.036;15.466;2023-05-07T13:52:21;11.65;;;7.10;;
68097;SDS011;54886;47.036;15.466;2023-05-07T13:54:46;8.38;;;4.90;;
68097;SDS011;54886;47.036;15.466;2023-05-07T13:57:12;6.80;;;4.07;;
68097;SDS011;54886;47.036;15.466;2023-05-07T13:59:37;8.85;;;4.55;;
68097;SDS011;54886;47.036;15.466;2023-05-07T14:02:03;7.63;;;4.70;;
68097;SDS011;54886;47.036;15.466;2023-05-07T14:04:28;9.88;;;5.22;;
68097;SDS011;54886;47.036;15.466;2023-05-07T14:06:53;10.40;;;5.90;;
68097;SDS011;54886;47.036;15.466;2023-05-07T14:09:19;10.10;;;6.18;;
68097;SDS011;54886;47.036;15.466;2023-05-07T14:11:44;9.88;;;6.25;;
68097;SDS011;54886;47.036;15.466;2023-05-07T14:14:11;8.73;;;5.78;;
68097;SDS011;54886;47.036;15.466;2023-05-07T14:16:36;7.90;;;5.82;;
68097;SDS011;54886;47.036;15.466;2023-05-07T14:19:02;9.10;;;6.15;;
68097;SDS011;54886;47.036;15.466;2023-05-07T14:21:27;8.55;;;6.55;;
68097;SDS011;54886;47.036;15.466;2023-05-07T14:23:53;9.65;;;6.57;;
68097;SDS011;54886;47.036;15.466;2023-05-07T14:26:18;10.07;;;6.60;;
68097;SDS011;54886;47.036;15.466;2023-05-07T14:28:44;11.48;;;6.55;;
68097;SDS011;54886;47.036;15.466;2023-05-07T14:31:11;12.27;;;7.07;;
68097;SDS011;54886;47.036;15.466;2023-05-07T14:33:37;9.32;;;6.70;;
68097;SDS011;54886;47.036;15.466;2023-05-07T14:36:03;10.82;;;6.45;;
68097;SDS011;54886;47.036;15.466;2023-05-07T14:38:29;11.57;;;6.70;;
68097;SDS011;54886;47.036;15.466;2023-05-07T14:40:55;9.55;;;6.45;;
68097;SDS011;54886;47.036;15.466;2023-05-07T14:43:21;9.38;;;6.22;;
68097;SDS011;54886;47.036;15.466;2023-05-07T14:45:47;9.43;;;5.97;;
68097;SDS011;54886;47.036;15.466;2023-05-07T14:48:12;10.50;;;6.15;;
68097;SDS011;54886;47.036;15.466;2023-05-07T14:50:40;8.90;;;6.22;;
68097;SDS011;54886;47.036;15.466;2023-05-07T14:53:06;8.95;;;6.32;;
68097;SDS011;54886;47.036;15.466;2023-05-07T14:55:31;8.70;;;6.20;;